sensor_id;sensor_type;location;lat;lon;timestamp;temperature;humidity
18541;DHT22;9400;50.924;5.328;2023-05-23T00:00:47;16.10;99.90
18541;DHT22;9400;50.924;5.328;2023-05-23T00:03:17;16.10;99.90
18541;DHT22;9400;50.924;5.328;2023-05-23T00:05:48;15.90;99.90
18541;DHT22;9400;50.924;5.328;2023-05-23T00:08:16;15.80;99.90
18541;DHT22;9400;50.924;5.328;2023-05-23T00:10:45;15.70;99.90
18541;DHT22;9400;50.924;5.328;2023-05-23T00:13:12;15.70;99.90
18541;DHT22;9400;50.924;5.328;2023-05-23T00:15:40;15.70;99.90
18541;DHT22;9400;50.924;5.328;2023-05-23T00:18:08;15.70;99.90
18541;DHT22;9400;50.924;5.328;2023-05-23T00:20:37;15.70;99.90
18541;DHT22;9400;50.924;5.328;2023-05-23T00:23:06;15.60;99.90
18541;DHT22;9400;50.924;5.328;2023-05-23T00:25:35;15.60;99.90
18541;DHT22;9400;50.924;5.328;2023-05-23T00:28:04;15.40;99.90
18541;DHT22;9400;50.924;5.328;2023-05-23T00:30:32;15.40;99.90
18541;DHT22;9400;50.924;5.328;2023-05-23T00:33:00;15.30;99.90
18541;DHT22;9400;50.924;5.328;2023-05-23T00:35:27;15.30;99.90
18541;DHT22;9400;50.924;5.328;2023-05-23T00:37:57;15.30;99.90
18541;DHT22;9400;50.924;5.328;2023-05-23T00:40:27;15.30;99.90
18541;DHT22;9400;50.924;5.328;2023-05-23T00:42:54;15.30;99.90
18541;DHT22;9400;50.924;5.328;2023-05-23T00:45:23;15.10;99.90
18541;DHT22;9400;50.924;5.328;2023-05-23T00:47:51;15.10;99.90
18541;DHT22;9400;50.924;5.328;2023-05-23T00:50:20;15.10;99.90
18541;DHT22;9400;50.924;5.328;2023-05-23T00:52:47;15.10;99.90
18541;DHT22;9400;50.924;5.328;2023-05-23T00:55:15;15.10;99.90
18541;DHT22;9400;50.924;5.328;2023-05-23T00:57:43;15.10;99.90
18541;DHT22;9400;50.924;5.328;2023-05-23T01:00:12;15.10;99.90
18541;DHT22;9400;50.924;5.328;2023-05-23T01:02:43;15.00;99.90
18541;DHT22;9400;50.924;5.328;2023-05-23T01:05:15;15.20;99.90
18541;DHT22;9400;50.924;5.328;2023-05-23T01:07:43;15.20;99.90
18541;DHT22;9400;50.924;5.328;2023-05-23T01:10:12;15.20;99.90
18541;DHT22;9400;50.924;5.328;2023-05-23T01:12:48;15.20;99.90
18541;DHT22;9400;50.924;5.328;2023-05-23T01:15:20;15.20;99.90
18541;DHT22;9400;50.924;5.328;2023-05-23T01:17:58;15.20;99.90
18541;DHT22;9400;50.924;5.328;2023-05-23T01:20:30;15.30;99.90
18541;DHT22;9400;50.924;5.328;2023-05-23T01:23:10;15.20;99.90
18541;DHT22;9400;50.924;5.328;2023-05-23T01:26:02;15.30;99.90
18541;DHT22;9400;50.924;5.328;2023-05-23T01:28:42;15.40;99.90
18541;DHT22;9400;50.924;5.328;2023-05-23T01:31:12;15.30;99.90
18541;DHT22;9400;50.924;5.328;2023-05-23T01:33:43;15.30;99.90
18541;DHT22;9400;50.924;5.328;2023-05-23T01:36:12;15.30;99.90
18541;DHT22;9400;50.924;5.328;2023-05-23T01:38:40;15.40;99.90
18541;DHT22;9400;50.924;5.328;2023-05-23T01:41:08;15.40;99.90
18541;DHT22;9400;50.924;5.328;2023-05-23T01:43:37;15.40;99.90
18541;DHT22;9400;50.924;5.328;2023-05-23T01:46:05;15.30;99.90
18541;DHT22;9400;50.924;5.328;2023-05-23T01:48:34;15.30;99.90
18541;DHT22;9400;50.924;5.328;2023-05-23T01:51:03;15.40;99.90
18541;DHT22;9400;50.924;5.328;2023-05-23T01:53:31;15.40;99.90
18541;DHT22;9400;50.924;5.328;2023-05-23T01:55:59;15.40;99.90
18541;DHT22;9400;50.924;5.328;2023-05-23T01:58:28;15.40;99.90
18541;DHT22;9400;50.924;5.328;2023-05-23T02:00:57;15.40;99.90
18541;DHT22;9400;50.924;5.328;2023-05-23T02:03:25;15.40;99.90
18541;DHT22;9400;50.924;5.328;2023-05-23T02:05:53;15.40;99.90
18541;DHT22;9400;50.924;5.328;2023-05-23T02:08:20;15.40;99.90
18541;DHT22;9400;50.924;5.328;2023-05-23T02:10:48;15.50;99.90
18541;DHT22;9400;50.924;5.328;2023-05-23T02:13:16;15.50;99.90
18541;DHT22;9400;50.924;5.328;2023-05-23T02:15:44;15.50;99.90
18541;DHT22;9400;50.924;5.328;2023-05-23T02:18:13;15.50;99.90
18541;DHT22;9400;50.924;5.328;2023-05-23T02:20:40;15.50;99.90
18541;DHT22;9400;50.924;5.328;2023-05-23T02:23:08;15.40;99.90
18541;DHT22;9400;50.924;5.328;2023-05-23T02:25:36;15.30;99.90
18541;DHT22;9400;50.924;5.328;2023-05-23T02:28:03;15.30;99.90
18541;DHT22;9400;50.924;5.328;2023-05-23T02:30:31;15.30;99.90
18541;DHT22;9400;50.924;5.328;2023-05-23T02:32:59;15.30;99.90
18541;DHT22;9400;50.924;5.328;2023-05-23T02:35:32;15.30;99.90
18541;DHT22;9400;50.924;5.328;2023-05-23T02:38:00;15.10;99.90
18541;DHT22;9400;50.924;5.328;2023-05-23T02:40:28;15.20;99.90
18541;DHT22;9400;50.924;5.328;2023-05-23T02:42:56;15.20;99.90
18541;DHT22;9400;50.924;5.328;2023-05-23T02:45:24;15.30;99.90
18541;DHT22;9400;50.924;5.328;2023-05-23T02:47:51;15.20;99.90
18541;DHT22;9400;50.924;5.328;2023-05-23T02:50:19;15.30;99.90
18541;DHT22;9400;50.924;5.328;2023-05-23T02:52:47;15.20;99.90
18541;DHT22;9400;50.924;5.328;2023-05-23T02:55:15;15.20;99.90
18541;DHT22;9400;50.924;5.328;2023-05-23T02:57:43;15.10;99.90
18541;DHT22;9400;50.924;5.328;2023-05-23T03:00:12;15.10;99.90
18541;DHT22;9400;50.924;5.328;2023-05-23T03:02:40;15.10;99.90
18541;DHT22;9400;50.924;5.328;2023-05-23T03:05:08;15.10;99.90
18541;DHT22;9400;50.924;5.328;2023-05-23T03:07:36;15.10;99.90
18541;DHT22;9400;50.924;5.328;2023-05-23T03:10:06;15.10;99.90
18541;DHT22;9400;50.924;5.328;2023-05-23T03:12:34;15.10;99.90
18541;DHT22;9400;50.924;5.328;2023-05-23T03:15:03;15.20;99.90
18541;DHT22;9400;50.924;5.328;2023-05-23T03:17:31;15.20;99.90
18541;DHT22;9400;50.924;5.328;2023-05-23T03:19:59;15.20;99.90
18541;DHT22;9400;50.924;5.328;2023-05-23T03:22:26;15.10;99.90
18541;DHT22;9400;50.924;5.328;2023-05-23T03:24:54;15.10;99.90
18541;DHT22;9400;50.924;5.328;2023-05-23T03:27:23;15.00;99.90
18541;DHT22;9400;50.924;5.328;2023-05-23T03:29:51;15.00;99.90
18541;DHT22;9400;50.924;5.328;2023-05-23T03:32:20;14.90;99.90
18541;DHT22;9400;50.924;5.328;2023-05-23T03:34:47;14.90;99.90
18541;DHT22;9400;50.924;5.328;2023-05-23T03:37:15;14.90;99.90
18541;DHT22;9400;50.924;5.328;2023-05-23T03:39:42;14.90;99.90
18541;DHT22;9400;50.924;5.328;2023-05-23T03:42:10;15.00;99.90
18541;DHT22;9400;50.924;5.328;2023-05-23T03:44:39;14.90;99.90
18541;DHT22;9400;50.924;5.328;2023-05-23T03:47:07;14.90;99.90
18541;DHT22;9400;50.924;5.328;2023-05-23T03:49:35;14.90;99.90
18541;DHT22;9400;50.924;5.328;2023-05-23T03:52:02;14.80;99.90
18541;DHT22;9400;50.924;5.328;2023-05-23T03:54:30;14.70;99.90
18541;DHT22;9400;50.924;5.328;2023-05-23T03:56:58;14.80;99.90
18541;DHT22;9400;50.924;5.328;2023-05-23T03:59:26;14.80;99.90
18541;DHT22;9400;50.924;5.328;2023-05-23T04:01:55;14.80;99.90
18541;DHT22;9400;50.924;5.328;2023-05-23T04:04:24;14.90;99.90
18541;DHT22;9400;50.924;5.328;2023-05-23T04:06:52;14.90;99.90
18541;DHT22;9400;50.924;5.328;2023-05-23T04:09:19;14.90;99.90
18541;DHT22;9400;50.924;5.328;2023-05-23T04:11:47;14.90;99.90
18541;DHT22;9400;50.924;5.328;2023-05-23T04:14:15;14.80;99.90
18541;DHT22;9400;50.924;5.328;2023-05-23T04:16:45;14.90;99.90
18541;DHT22;9400;50.924;5.328;2023-05-23T04:19:14;14.90;99.90
18541;DHT22;9400;50.924;5.328;2023-05-23T04:21:42;14.90;99.90
18541;DHT22;9400;50.924;5.328;2023-05-23T04:24:10;14.90;99.90
18541;DHT22;9400;50.924;5.328;2023-05-23T04:26:37;14.70;99.90
18541;DHT22;9400;50.924;5.328;2023-05-23T04:29:05;14.70;99.90
18541;DHT22;9400;50.924;5.328;2023-05-23T04:31:32;14.70;99.90
18541;DHT22;9400;50.924;5.328;2023-05-23T04:34:00;14.70;99.90
18541;DHT22;9400;50.924;5.328;2023-05-23T04:36:29;14.70;99.90
18541;DHT22;9400;50.924;5.328;2023-05-23T04:38:57;14.80;99.90
18541;DHT22;9400;50.924;5.328;2023-05-23T04:41:24;14.90;99.90
18541;DHT22;9400;50.924;5.328;2023-05-23T04:43:52;14.80;99.90
18541;DHT22;9400;50.924;5.328;2023-05-23T04:46:23;14.90;99.90
18541;DHT22;9400;50.924;5.328;2023-05-23T04:48:52;15.00;99.90
18541;DHT22;9400;50.924;5.328;2023-05-23T04:51:20;15.00;99.90
18541;DHT22;9400;50.924;5.328;2023-05-23T04:53:50;15.10;99.90
18541;DHT22;9400;50.924;5.328;2023-05-23T04:56:17;15.20;99.90
18541;DHT22;9400;50.924;5.328;2023-05-23T04:58:46;15.20;99.90
18541;DHT22;9400;50.924;5.328;2023-05-23T05:01:14;15.20;99.90
18541;DHT22;9400;50.924;5.328;2023-05-23T05:03:42;15.10;99.90
18541;DHT22;9400;50.924;5.328;2023-05-23T05:06:09;15.10;99.90
18541;DHT22;9400;50.924;5.328;2023-05-23T05:08:37;15.10;99.90
18541;DHT22;9400;50.924;5.328;2023-05-23T05:11:07;15.00;99.90
18541;DHT22;9400;50.924;5.328;2023-05-23T05:13:35;15.00;99.90
18541;DHT22;9400;50.924;5.328;2023-05-23T05:16:02;14.90;99.90
18541;DHT22;9400;50.924;5.328;2023-05-23T05:18:30;14.80;99.90
18541;DHT22;9400;50.924;5.328;2023-05-23T05:20:57;14.90;99.90
18541;DHT22;9400;50.924;5.328;2023-05-23T05:23:25;14.90;99.90
18541;DHT22;9400;50.924;5.328;2023-05-23T05:25:55;15.00;99.90
18541;DHT22;9400;50.924;5.328;2023-05-23T05:28:24;14.90;99.90
18541;DHT22;9400;50.924;5.328;2023-05-23T05:30:51;14.90;99.90
18541;DHT22;9400;50.924;5.328;2023-05-23T05:33:19;14.90;99.90
18541;DHT22;9400;50.924;5.328;2023-05-23T05:35:48;14.90;99.90
18541;DHT22;9400;50.924;5.328;2023-05-23T05:38:17;15.00;99.90
18541;DHT22;9400;50.924;5.328;2023-05-23T05:40:44;15.00;99.90
18541;DHT22;9400;50.924;5.328;2023-05-23T05:43:12;15.00;99.90
18541;DHT22;9400;50.924;5.328;2023-05-23T05:45:41;15.00;99.90
18541;DHT22;9400;50.924;5.328;2023-05-23T05:48:09;14.90;99.90
18541;DHT22;9400;50.924;5.328;2023-05-23T05:51:00;14.90;99.90
18541;DHT22;9400;50.924;5.328;2023-05-23T05:53:28;15.00;99.90
18541;DHT22;9400;50.924;5.328;2023-05-23T05:55:55;15.00;99.90
18541;DHT22;9400;50.924;5.328;2023-05-23T05:58:23;15.00;99.90
18541;DHT22;9400;50.924;5.328;2023-05-23T06:00:53;15.00;99.90
18541;DHT22;9400;50.924;5.328;2023-05-23T06:03:21;15.00;99.90
18541;DHT22;9400;50.924;5.328;2023-05-23T06:05:49;15.10;99.90
18541;DHT22;9400;50.924;5.328;2023-05-23T06:08:16;15.10;99.90
18541;DHT22;9400;50.924;5.328;2023-05-23T06:10:44;15.00;99.90
18541;DHT22;9400;50.924;5.328;2023-05-23T06:13:11;15.10;99.90
18541;DHT22;9400;50.924;5.328;2023-05-23T06:15:39;15.10;99.90
18541;DHT22;9400;50.924;5.328;2023-05-23T06:18:08;15.20;99.90
18541;DHT22;9400;50.924;5.328;2023-05-23T06:20:36;15.20;99.90
18541;DHT22;9400;50.924;5.328;2023-05-23T06:23:04;15.40;99.90
18541;DHT22;9400;50.924;5.328;2023-05-23T06:25:31;15.40;99.90
18541;DHT22;9400;50.924;5.328;2023-05-23T06:27:59;15.50;99.90
18541;DHT22;9400;50.924;5.328;2023-05-23T06:30:27;15.50;99.90
18541;DHT22;9400;50.924;5.328;2023-05-23T06:32:54;15.60;99.90
18541;DHT22;9400;50.924;5.328;2023-05-23T06:35:23;15.50;99.90
18541;DHT22;9400;50.924;5.328;2023-05-23T06:37:51;15.50;99.90
18541;DHT22;9400;50.924;5.328;2023-05-23T06:40:18;15.30;99.90
18541;DHT22;9400;50.924;5.328;2023-05-23T06:42:46;15.30;99.90
18541;DHT22;9400;50.924;5.328;2023-05-23T06:45:13;15.20;99.90
18541;DHT22;9400;50.924;5.328;2023-05-23T06:47:41;15.30;99.90
18541;DHT22;9400;50.924;5.328;2023-05-23T06:50:10;15.30;99.90
18541;DHT22;9400;50.924;5.328;2023-05-23T06:52:39;15.30;99.90
18541;DHT22;9400;50.924;5.328;2023-05-23T06:55:09;15.40;99.90
18541;DHT22;9400;50.924;5.328;2023-05-23T06:57:39;15.20;99.90
18541;DHT22;9400;50.924;5.328;2023-05-23T07:00:07;14.90;99.90
18541;DHT22;9400;50.924;5.328;2023-05-23T07:02:35;14.70;99.90
18541;DHT22;9400;50.924;5.328;2023-05-23T07:05:03;14.90;99.90
18541;DHT22;9400;50.924;5.328;2023-05-23T07:07:31;14.70;99.90
18541;DHT22;9400;50.924;5.328;2023-05-23T07:10:00;14.70;99.90
18541;DHT22;9400;50.924;5.328;2023-05-23T07:12:27;14.90;99.90
18541;DHT22;9400;50.924;5.328;2023-05-23T07:14:55;15.00;99.90
18541;DHT22;9400;50.924;5.328;2023-05-23T07:17:22;15.20;99.90
18541;DHT22;9400;50.924;5.328;2023-05-23T07:19:50;15.00;99.90
18541;DHT22;9400;50.924;5.328;2023-05-23T07:22:17;15.10;99.90
18541;DHT22;9400;50.924;5.328;2023-05-23T07:24:45;15.20;99.90
18541;DHT22;9400;50.924;5.328;2023-05-23T07:27:14;15.00;99.90
18541;DHT22;9400;50.924;5.328;2023-05-23T07:29:42;14.90;99.90
18541;DHT22;9400;50.924;5.328;2023-05-23T07:32:09;14.80;99.90
18541;DHT22;9400;50.924;5.328;2023-05-23T07:34:37;14.70;99.90
18541;DHT22;9400;50.924;5.328;2023-05-23T07:37:04;14.60;99.90
18541;DHT22;9400;50.924;5.328;2023-05-23T07:39:32;14.50;99.90
18541;DHT22;9400;50.924;5.328;2023-05-23T07:41:59;14.50;99.90
18541;DHT22;9400;50.924;5.328;2023-05-23T07:44:28;14.70;99.90
18541;DHT22;9400;50.924;5.328;2023-05-23T07:46:55;14.60;99.90
18541;DHT22;9400;50.924;5.328;2023-05-23T07:49:23;14.50;99.90
18541;DHT22;9400;50.924;5.328;2023-05-23T07:51:50;14.40;99.90
18541;DHT22;9400;50.924;5.328;2023-05-23T07:54:18;14.60;99.90
18541;DHT22;9400;50.924;5.328;2023-05-23T07:56:45;14.70;99.90
18541;DHT22;9400;50.924;5.328;2023-05-23T07:59:13;14.40;99.90
18541;DHT22;9400;50.924;5.328;2023-05-23T08:01:43;14.60;99.90
18541;DHT22;9400;50.924;5.328;2023-05-23T08:04:11;14.70;99.90
18541;DHT22;9400;50.924;5.328;2023-05-23T08:06:38;14.90;99.90
18541;DHT22;9400;50.924;5.328;2023-05-23T08:09:09;15.00;99.90
18541;DHT22;9400;50.924;5.328;2023-05-23T08:11:36;15.10;99.90
18541;DHT22;9400;50.924;5.328;2023-05-23T08:14:04;15.10;99.90
18541;DHT22;9400;50.924;5.328;2023-05-23T08:16:32;15.10;99.90
18541;DHT22;9400;50.924;5.328;2023-05-23T08:19:01;15.30;99.90
18541;DHT22;9400;50.924;5.328;2023-05-23T08:21:29;15.10;99.90
18541;DHT22;9400;50.924;5.328;2023-05-23T08:23:56;14.90;99.90
18541;DHT22;9400;50.924;5.328;2023-05-23T08:26:24;14.60;99.90
18541;DHT22;9400;50.924;5.328;2023-05-23T08:28:53;14.50;99.90
18541;DHT22;9400;50.924;5.328;2023-05-23T08:31:20;14.40;99.90
18541;DHT22;9400;50.924;5.328;2023-05-23T08:33:48;14.30;99.90
18541;DHT22;9400;50.924;5.328;2023-05-23T08:36:16;14.40;99.90
18541;DHT22;9400;50.924;5.328;2023-05-23T08:38:44;14.40;99.90
18541;DHT22;9400;50.924;5.328;2023-05-23T08:41:17;14.50;99.90
18541;DHT22;9400;50.924;5.328;2023-05-23T08:43:45;14.50;99.90
18541;DHT22;9400;50.924;5.328;2023-05-23T08:46:14;14.60;99.90
18541;DHT22;9400;50.924;5.328;2023-05-23T08:48:43;14.60;99.90
18541;DHT22;9400;50.924;5.328;2023-05-23T08:51:16;14.60;99.90
18541;DHT22;9400;50.924;5.328;2023-05-23T08:53:45;14.60;99.90
18541;DHT22;9400;50.924;5.328;2023-05-23T08:56:14;14.50;99.90
18541;DHT22;9400;50.924;5.328;2023-05-23T08:58:42;14.50;99.90
18541;DHT22;9400;50.924;5.328;2023-05-23T09:01:10;14.50;99.90
18541;DHT22;9400;50.924;5.328;2023-05-23T09:03:38;14.60;99.90
18541;DHT22;9400;50.924;5.328;2023-05-23T09:06:08;14.70;99.90
18541;DHT22;9400;50.924;5.328;2023-05-23T09:08:38;14.70;99.90
18541;DHT22;9400;50.924;5.328;2023-05-23T09:11:06;14.90;99.90
18541;DHT22;9400;50.924;5.328;2023-05-23T09:13:41;15.00;99.90
18541;DHT22;9400;50.924;5.328;2023-05-23T09:16:09;15.00;99.90
18541;DHT22;9400;50.924;5.328;2023-05-23T09:18:38;15.30;99.90
18541;DHT22;9400;50.924;5.328;2023-05-23T09:21:08;15.40;99.90
18541;DHT22;9400;50.924;5.328;2023-05-23T09:23:39;15.50;99.90
18541;DHT22;9400;50.924;5.328;2023-05-23T09:26:08;15.70;99.90
18541;DHT22;9400;50.924;5.328;2023-05-23T09:28:37;16.00;99.90
18541;DHT22;9400;50.924;5.328;2023-05-23T09:31:06;16.50;99.90
18541;DHT22;9400;50.924;5.328;2023-05-23T09:33:39;16.50;99.90
18541;DHT22;9400;50.924;5.328;2023-05-23T09:36:07;16.80;99.90
18541;DHT22;9400;50.924;5.328;2023-05-23T09:38:39;17.30;99.90
18541;DHT22;9400;50.924;5.328;2023-05-23T09:41:07;17.50;99.90
18541;DHT22;9400;50.924;5.328;2023-05-23T09:43:48;16.90;99.90
18541;DHT22;9400;50.924;5.328;2023-05-23T09:46:15;17.00;99.90
18541;DHT22;9400;50.924;5.328;2023-05-23T09:48:46;16.50;99.90
18541;DHT22;9400;50.924;5.328;2023-05-23T09:51:14;16.50;99.90
18541;DHT22;9400;50.924;5.328;2023-05-23T09:53:46;16.50;99.90
18541;DHT22;9400;50.924;5.328;2023-05-23T09:56:16;16.90;99.90
18541;DHT22;9400;50.924;5.328;2023-05-23T09:58:47;16.70;99.90
18541;DHT22;9400;50.924;5.328;2023-05-23T10:01:18;16.70;99.90
18541;DHT22;9400;50.924;5.328;2023-05-23T10:03:52;16.90;99.90
18541;DHT22;9400;50.924;5.328;2023-05-23T10:06:25;17.00;99.90
18541;DHT22;9400;50.924;5.328;2023-05-23T10:08:58;16.70;99.90
18541;DHT22;9400;50.924;5.328;2023-05-23T10:14:35;16.60;99.90
18541;DHT22;9400;50.924;5.328;2023-05-23T10:17:09;16.30;99.90
18541;DHT22;9400;50.924;5.328;2023-05-23T10:19:43;16.00;99.90
18541;DHT22;9400;50.924;5.328;2023-05-23T10:22:13;16.00;99.90
18541;DHT22;9400;50.924;5.328;2023-05-23T10:24:44;16.40;99.90
18541;DHT22;9400;50.924;5.328;2023-05-23T10:27:13;16.40;99.90
18541;DHT22;9400;50.924;5.328;2023-05-23T10:29:41;16.30;99.90
18541;DHT22;9400;50.924;5.328;2023-05-23T10:32:10;16.50;99.90
18541;DHT22;9400;50.924;5.328;2023-05-23T10:34:45;16.50;99.90
18541;DHT22;9400;50.924;5.328;2023-05-23T10:37:22;16.60;99.90
18541;DHT22;9400;50.924;5.328;2023-05-23T10:39:58;16.80;99.90
18541;DHT22;9400;50.924;5.328;2023-05-23T10:42:37;16.70;99.90
18541;DHT22;9400;50.924;5.328;2023-05-23T10:45:17;17.00;99.90
18541;DHT22;9400;50.924;5.328;2023-05-23T10:47:47;17.20;99.90
18541;DHT22;9400;50.924;5.328;2023-05-23T10:50:29;17.30;99.90
18541;DHT22;9400;50.924;5.328;2023-05-23T10:52:58;17.60;99.90
18541;DHT22;9400;50.924;5.328;2023-05-23T10:55:30;17.60;99.90
18541;DHT22;9400;50.924;5.328;2023-05-23T10:58:13;17.60;99.90
18541;DHT22;9400;50.924;5.328;2023-05-23T11:00:50;17.50;99.90
18541;DHT22;9400;50.924;5.328;2023-05-23T11:03:34;18.00;99.90
18541;DHT22;9400;50.924;5.328;2023-05-23T11:06:02;18.20;99.90
18541;DHT22;9400;50.924;5.328;2023-05-23T11:08:37;18.20;99.90
18541;DHT22;9400;50.924;5.328;2023-05-23T11:11:09;18.70;99.90
18541;DHT22;9400;50.924;5.328;2023-05-23T11:13:56;18.40;99.90
18541;DHT22;9400;50.924;5.328;2023-05-23T11:16:27;17.90;99.90
18541;DHT22;9400;50.924;5.328;2023-05-23T11:19:22;17.80;99.90
18541;DHT22;9400;50.924;5.328;2023-05-23T11:21:54;18.00;99.90
18541;DHT22;9400;50.924;5.328;2023-05-23T11:24:22;17.90;99.90
18541;DHT22;9400;50.924;5.328;2023-05-23T11:26:57;18.20;99.90
18541;DHT22;9400;50.924;5.328;2023-05-23T11:29:27;18.80;99.90
18541;DHT22;9400;50.924;5.328;2023-05-23T11:31:55;19.00;99.90
18541;DHT22;9400;50.924;5.328;2023-05-23T11:34:24;19.20;99.90
18541;DHT22;9400;50.924;5.328;2023-05-23T11:36:53;19.40;99.90
18541;DHT22;9400;50.924;5.328;2023-05-23T11:39:21;19.10;99.90
18541;DHT22;9400;50.924;5.328;2023-05-23T11:42:07;18.90;99.90
18541;DHT22;9400;50.924;5.328;2023-05-23T11:44:35;19.30;99.90
18541;DHT22;9400;50.924;5.328;2023-05-23T11:47:03;19.30;99.90
18541;DHT22;9400;50.924;5.328;2023-05-23T11:49:33;18.80;99.90
18541;DHT22;9400;50.924;5.328;2023-05-23T11:52:02;18.80;99.90
18541;DHT22;9400;50.924;5.328;2023-05-23T11:54:29;18.90;99.90
18541;DHT22;9400;50.924;5.328;2023-05-23T11:56:57;18.90;99.90
18541;DHT22;9400;50.924;5.328;2023-05-23T11:59:27;19.40;99.90
18541;DHT22;9400;50.924;5.328;2023-05-23T12:01:54;20.00;99.90
18541;DHT22;9400;50.924;5.328;2023-05-23T12:04:23;20.10;99.90
18541;DHT22;9400;50.924;5.328;2023-05-23T12:06:51;19.90;99.90
18541;DHT22;9400;50.924;5.328;2023-05-23T12:09:18;20.40;99.90
18541;DHT22;9400;50.924;5.328;2023-05-23T12:11:48;21.10;99.90
18541;DHT22;9400;50.924;5.328;2023-05-23T12:14:18;21.50;99.90
18541;DHT22;9400;50.924;5.328;2023-05-23T12:16:47;20.80;99.90
18541;DHT22;9400;50.924;5.328;2023-05-23T12:19:16;20.50;99.90
18541;DHT22;9400;50.924;5.328;2023-05-23T12:21:44;21.00;99.90
18541;DHT22;9400;50.924;5.328;2023-05-23T12:24:14;20.80;99.90
18541;DHT22;9400;50.924;5.328;2023-05-23T12:26:49;20.50;99.90
18541;DHT22;9400;50.924;5.328;2023-05-23T12:29:18;20.40;99.90
18541;DHT22;9400;50.924;5.328;2023-05-23T12:31:51;20.40;99.90
18541;DHT22;9400;50.924;5.328;2023-05-23T12:34:20;21.00;99.90
18541;DHT22;9400;50.924;5.328;2023-05-23T12:36:48;21.10;99.90
18541;DHT22;9400;50.924;5.328;2023-05-23T12:39:23;21.20;99.90
18541;DHT22;9400;50.924;5.328;2023-05-23T12:41:51;21.50;99.90
18541;DHT22;9400;50.924;5.328;2023-05-23T12:44:21;21.50;99.90
18541;DHT22;9400;50.924;5.328;2023-05-23T12:46:53;20.90;99.90
18541;DHT22;9400;50.924;5.328;2023-05-23T12:49:20;20.20;99.90
18541;DHT22;9400;50.924;5.328;2023-05-23T12:51:48;20.10;99.90
18541;DHT22;9400;50.924;5.328;2023-05-23T12:54:16;20.40;99.90
18541;DHT22;9400;50.924;5.328;2023-05-23T12:56:43;20.70;99.90
18541;DHT22;9400;50.924;5.328;2023-05-23T12:59:11;21.30;99.90
18541;DHT22;9400;50.924;5.328;2023-05-23T13:01:40;21.50;99.90
18541;DHT22;9400;50.924;5.328;2023-05-23T13:04:09;22.10;99.90
18541;DHT22;9400;50.924;5.328;2023-05-23T13:06:36;21.80;99.90
18541;DHT22;9400;50.924;5.328;2023-05-23T13:09:04;22.30;99.90
18541;DHT22;9400;50.924;5.328;2023-05-23T13:11:32;23.20;99.90
18541;DHT22;9400;50.924;5.328;2023-05-23T13:13:59;22.50;99.90
18541;DHT22;9400;50.924;5.328;2023-05-23T13:16:27;21.80;99.90
18541;DHT22;9400;50.924;5.328;2023-05-23T13:18:57;21.80;99.90
18541;DHT22;9400;50.924;5.328;2023-05-23T13:21:26;22.40;99.90
18541;DHT22;9400;50.924;5.328;2023-05-23T13:23:53;22.20;99.90
18541;DHT22;9400;50.924;5.328;2023-05-23T13:26:21;22.10;99.90
18541;DHT22;9400;50.924;5.328;2023-05-23T13:28:49;21.80;99.90
18541;DHT22;9400;50.924;5.328;2023-05-23T13:31:17;21.30;99.90
18541;DHT22;9400;50.924;5.328;2023-05-23T13:33:44;20.80;99.90
18541;DHT22;9400;50.924;5.328;2023-05-23T13:36:11;20.90;99.90
18541;DHT22;9400;50.924;5.328;2023-05-23T13:38:40;20.90;99.90
18541;DHT22;9400;50.924;5.328;2023-05-23T13:41:08;21.70;99.90
18541;DHT22;9400;50.924;5.328;2023-05-23T13:43:37;22.20;99.90
18541;DHT22;9400;50.924;5.328;2023-05-23T13:46:06;22.20;99.90
18541;DHT22;9400;50.924;5.328;2023-05-23T13:48:47;21.80;99.90
18541;DHT22;9400;50.924;5.328;2023-05-23T13:51:16;22.60;99.90
18541;DHT22;9400;50.924;5.328;2023-05-23T13:54:04;22.00;99.90
18541;DHT22;9400;50.924;5.328;2023-05-23T13:56:32;21.60;99.90
18541;DHT22;9400;50.924;5.328;2023-05-23T13:59:04;21.70;99.90
18541;DHT22;9400;50.924;5.328;2023-05-23T14:01:32;22.10;99.90
18541;DHT22;9400;50.924;5.328;2023-05-23T14:04:00;23.10;99.90
18541;DHT22;9400;50.924;5.328;2023-05-23T14:06:41;23.40;99.90
18541;DHT22;9400;50.924;5.328;2023-05-23T14:09:27;22.20;99.90
18541;DHT22;9400;50.924;5.328;2023-05-23T14:12:09;21.40;99.90
18541;DHT22;9400;50.924;5.328;2023-05-23T14:14:38;22.30;99.90
18541;DHT22;9400;50.924;5.328;2023-05-23T14:17:06;23.30;99.90
18541;DHT22;9400;50.924;5.328;2023-05-23T14:19:34;24.60;99.90
18541;DHT22;9400;50.924;5.328;2023-05-23T14:22:01;23.10;99.90
18541;DHT22;9400;50.924;5.328;2023-05-23T14:24:33;21.90;99.90
18541;DHT22;9400;50.924;5.328;2023-05-23T14:27:00;22.30;99.90
18541;DHT22;9400;50.924;5.328;2023-05-23T14:29:28;22.40;99.90
18541;DHT22;9400;50.924;5.328;2023-05-23T14:31:56;23.20;99.90
18541;DHT22;9400;50.924;5.328;2023-05-23T14:34:25;24.40;99.90
18541;DHT22;9400;50.924;5.328;2023-05-23T14:36:53;24.30;99.90
18541;DHT22;9400;50.924;5.328;2023-05-23T14:39:20;24.90;99.90
18541;DHT22;9400;50.924;5.328;2023-05-23T14:41:49;25.10;99.90
18541;DHT22;9400;50.924;5.328;2023-05-23T14:44:17;25.70;99.90
18541;DHT22;9400;50.924;5.328;2023-05-23T14:46:45;26.10;99.90
18541;DHT22;9400;50.924;5.328;2023-05-23T14:49:14;24.40;99.90
18541;DHT22;9400;50.924;5.328;2023-05-23T14:51:42;22.60;99.90
18541;DHT22;9400;50.924;5.328;2023-05-23T14:54:10;22.50;99.90
18541;DHT22;9400;50.924;5.328;2023-05-23T14:56:37;23.20;99.90
18541;DHT22;9400;50.924;5.328;2023-05-23T14:59:07;23.80;99.90
18541;DHT22;9400;50.924;5.328;2023-05-23T15:01:35;25.20;99.90
18541;DHT22;9400;50.924;5.328;2023-05-23T15:04:03;26.00;99.90
18541;DHT22;9400;50.924;5.328;2023-05-23T15:06:33;25.90;99.90
18541;DHT22;9400;50.924;5.328;2023-05-23T15:09:02;26.30;99.90
18541;DHT22;9400;50.924;5.328;2023-05-23T15:11:32;26.10;99.90
18541;DHT22;9400;50.924;5.328;2023-05-23T15:14:19;25.90;99.90
18541;DHT22;9400;50.924;5.328;2023-05-23T15:16:54;25.20;99.90
18541;DHT22;9400;50.924;5.328;2023-05-23T15:19:36;24.20;99.90
18541;DHT22;9400;50.924;5.328;2023-05-23T15:22:04;23.00;99.90
18541;DHT22;9400;50.924;5.328;2023-05-23T15:24:31;22.10;99.90
18541;DHT22;9400;50.924;5.328;2023-05-23T15:26:59;21.70;99.90
18541;DHT22;9400;50.924;5.328;2023-05-23T15:29:28;21.70;99.90
18541;DHT22;9400;50.924;5.328;2023-05-23T15:31:56;21.00;99.90
18541;DHT22;9400;50.924;5.328;2023-05-23T15:34:23;21.40;99.90
18541;DHT22;9400;50.924;5.328;2023-05-23T15:36:50;21.80;99.90
18541;DHT22;9400;50.924;5.328;2023-05-23T15:39:18;22.50;99.90
18541;DHT22;9400;50.924;5.328;2023-05-23T15:41:46;22.70;99.90
18541;DHT22;9400;50.924;5.328;2023-05-23T15:44:14;23.50;99.90
18541;DHT22;9400;50.924;5.328;2023-05-23T15:46:49;23.70;99.90
18541;DHT22;9400;50.924;5.328;2023-05-23T15:49:16;24.20;99.90
18541;DHT22;9400;50.924;5.328;2023-05-23T15:51:44;24.60;99.90
18541;DHT22;9400;50.924;5.328;2023-05-23T15:54:12;24.30;99.90
18541;DHT22;9400;50.924;5.328;2023-05-23T15:56:40;23.90;99.90
18541;DHT22;9400;50.924;5.328;2023-05-23T15:59:08;23.60;99.90
18541;DHT22;9400;50.924;5.328;2023-05-23T16:01:36;23.90;99.90